Time;durP1;ratioP1;P1;durP2;ratioP2;P2;SDS_P1;SDS_P2;PMS_P1;PMS_P2;Temp;Humidity;BMP_temperature;BMP_pressure;BME280_temperature;BME280_humidity;BME280_pressure;Samples;Min_cycle;Max_cycle;Signal;HPM_P1;HPM_P2
2021/12/03 00:01:07;;;;;;;29.75;19.23;;;;;;;-1.35;100.00;101073.19;4735636;30;20037;-86
2021/12/03 00:03:33;;;;;;;29.60;19.80;;;;;;;-1.18;100.00;101100.84;4735364;30;20470;-85
2021/12/03 00:05:58;;;;;;;31.38;20.25;;;;;;;-1.18;100.00;101090.72;4735185;30;20491;-82
2021/12/03 00:08:25;;;;;;;27.42;19.23;;;;;;;-1.25;100.00;101095.03;4735083;30;20056;-85
2021/12/03 00:10:57;;;;;;;26.42;19.58;;;;;;;-1.20;100.00;101100.88;4735408;30;20025;-82
2021/12/03 00:13:23;;;;;;;28.60;19.58;;;;;;;-1.30;100.00;101091.69;4735449;30;20029;-80
2021/12/03 00:15:50;;;;;;;30.23;21.17;;;;;;;-1.21;100.00;101096.66;4748635;30;20496;-82
2021/12/03 00:18:16;;;;;;;32.75;20.15;;;;;;;-1.33;100.00;101083.28;4735289;30;20032;-84
2021/12/03 00:20:41;;;;;;;28.88;19.70;;;;;;;-1.25;100.00;101097.56;4734994;30;20492;-85
2021/12/03 00:23:07;;;;;;;29.63;19.83;;;;;;;-1.27;100.00;101111.09;4735065;30;20032;-83
2021/12/03 00:25:34;;;;;;;29.52;19.08;;;;;;;-1.32;100.00;101105.22;4735037;30;20048;-87
2021/12/03 00:28:00;;;;;;;32.00;20.95;;;;;;;-1.33;100.00;101106.09;4735226;30;20032;-87
2021/12/03 00:30:26;;;;;;;35.90;21.35;;;;;;;-1.40;100.00;101100.22;4719447;30;20036;-88
2021/12/03 00:32:51;;;;;;;29.05;19.90;;;;;;;-1.36;100.00;101113.72;4735215;30;20098;-87
2021/12/03 00:35:18;;;;;;;33.10;21.38;;;;;;;-1.38;100.00;101113.72;4735195;30;20029;-88
2021/12/03 00:37:45;;;;;;;33.83;22.00;;;;;;;-1.41;100.00;101116.28;4734952;30;20039;-86
2021/12/03 00:40:15;;;;;;;36.97;21.85;;;;;;;-1.58;100.00;101087.72;4735107;30;20110;-85
2021/12/03 00:42:41;;;;;;;38.72;22.05;;;;;;;-1.46;100.00;101111.28;4734884;30;20032;-88
2021/12/03 00:45:09;;;;;;;35.70;23.85;;;;;;;-1.53;100.00;101101.22;4734971;30;20028;-74
2021/12/03 00:47:35;;;;;;;35.75;23.50;;;;;;;-1.47;100.00;101111.28;4734975;30;20031;-85
2021/12/03 00:50:01;;;;;;;40.35;24.25;;;;;;;-1.60;100.00;101089.44;4735222;30;20033;-85
2021/12/03 00:52:26;;;;;;;38.10;24.25;;;;;;;-1.49;100.00;101111.28;4734910;30;20032;-75
2021/12/03 00:54:52;;;;;;;36.55;25.02;;;;;;;-1.53;100.00;101099.50;4734995;30;20029;-74
2021/12/03 00:57:17;;;;;;;36.90;25.05;;;;;;;-1.73;100.00;101073.53;4735219;30;20036;-76
2021/12/03 00:59:43;;;;;;;40.42;24.67;;;;;;;-1.58;100.00;101103.75;4735068;30;20436;-88
2021/12/03 01:02:08;;;;;;;41.40;26.02;;;;;;;-1.49;100.00;101118.88;4734791;30;20064;-87
2021/12/03 01:04:34;;;;;;;41.83;25.80;;;;;;;-1.64;100.00;101095.41;4734755;30;20040;-88
2021/12/03 01:06:59;;;;;;;48.78;26.50;;;;;;;-1.63;100.00;101100.44;4734813;30;20115;-88
2021/12/03 01:09:24;;;;;;;42.70;25.17;;;;;;;-1.57;100.00;101099.56;4734836;30;20402;-88
2021/12/03 01:11:50;;;;;;;42.80;26.15;;;;;;;-1.58;100.00;101096.16;4718775;30;20044;-88
2021/12/03 01:14:17;;;;;;;43.40;26.98;;;;;;;-1.42;100.00;101121.38;4734815;30;20056;-88
2021/12/03 01:16:44;;;;;;;50.00;27.55;;;;;;;-1.51;100.00;101105.41;4734749;30;20029;-88
2021/12/03 01:19:09;;;;;;;40.42;27.33;;;;;;;-1.48;100.00;101112.97;4734631;30;20066;-88
2021/12/03 01:21:35;;;;;;;44.05;26.88;;;;;;;-1.42;100.00;101127.28;4734815;30;20076;-88
2021/12/03 01:24:00;;;;;;;45.58;26.48;;;;;;;-1.50;100.00;101118.91;4734495;30;20500;-87
2021/12/03 01:26:25;;;;;;;43.40;27.40;;;;;;;-1.59;100.00;101108.84;4734789;30;20116;-89
2021/12/03 01:28:51;;;;;;;43.22;27.90;;;;;;;-1.55;100.00;101115.59;4719108;30;20045;-88
2021/12/03 01:31:17;;;;;;;46.13;27.08;;;;;;;-1.60;100.00;101108.00;4734624;30;20478;-88
2021/12/03 01:33:45;;;;;;;52.58;28.85;;;;;;;-1.49;100.00;101121.41;4734627;30;20045;-88
2021/12/03 01:36:11;;;;;;;49.08;29.17;;;;;;;-1.46;100.00;101135.75;4734739;30;20036;-88
2021/12/03 01:38:36;;;;;;;49.95;29.98;;;;;;;-1.45;100.00;101133.22;4734360;30;20505;-89
2021/12/03 01:41:02;;;;;;;58.70;29.95;;;;;;;-1.42;100.00;101128.97;4734638;30;20033;-88
2021/12/03 01:43:28;;;;;;;51.85;29.67;;;;;;;-1.41;100.00;101118.81;4734513;30;20470;-88
2021/12/03 01:45:59;;;;;;;49.97;29.77;;;;;;;-2.39;100.00;100969.47;4734692;30;20082;-89
2021/12/03 01:48:26;;;;;;;57.42;31.77;;;;;;;-1.43;100.00;101114.63;4734528;30;20040;-88
2021/12/03 01:50:52;;;;;;;62.38;33.15;;;;;;;-1.37;100.00;101112.06;4734397;30;20036;-86
2021/12/03 01:53:19;;;;;;;58.58;34.03;;;;;;;-1.37;100.00;101107.81;4734304;30;20033;-88
2021/12/03 01:55:47;;;;;;;55.92;33.60;;;;;;;-1.40;100.00;101101.94;4737675;30;20032;-89
2021/12/03 01:58:13;;;;;;;66.43;35.45;;;;;;;-1.35;100.00;101106.13;4737720;30;20505;-89
2021/12/03 02:00:48;;;;;;;67.22;36.45;;;;;;;-1.36;100.00;101108.66;4737606;30;20029;-88
2021/12/03 02:03:15;;;;;;;65.63;36.63;;;;;;;-1.35;100.00;101102.75;4737641;30;20101;-88
2021/12/03 02:05:42;;;;;;;66.82;37.63;;;;;;;-1.26;100.00;101111.09;4737654;30;20029;-89
2021/12/03 02:08:08;;;;;;;64.97;36.65;;;;;;;-1.23;100.00;101125.41;4737180;30;20054;-88
2021/12/03 02:10:35;;;;;;;68.10;37.13;;;;;;;-1.29;100.00;101098.44;4737601;30;20442;-88
2021/12/03 02:13:00;;;;;;;64.93;38.25;;;;;;;-1.27;100.00;101101.81;4737450;30;20047;-88
2021/12/03 02:15:26;;;;;;;68.30;37.80;;;;;;;-1.36;100.00;101086.69;4737243;30;20119;-87
2021/12/03 02:17:51;;;;;;;68.20;38.42;;;;;;;-1.17;100.00;101122.84;4737452;30;20039;-88
2021/12/03 02:20:17;;;;;;;70.07;38.13;;;;;;;-1.18;100.00;101124.53;4737352;30;20577;-88
2021/12/03 02:22:43;;;;;;;66.85;39.10;;;;;;;-1.14;100.00;101120.25;4737675;30;20033;-89
2021/12/03 02:25:12;;;;;;;72.15;39.28;;;;;;;-1.14;100.00;101117.72;4737113;30;20059;-88
2021/12/03 02:27:38;;;;;;;71.50;39.35;;;;;;;-1.16;100.00;101106.78;4737284;30;20513;-77
2021/12/03 02:30:05;;;;;;;79.13;43.38;;;;;;;-1.21;100.00;101093.28;4721566;30;20028;-83
2021/12/03 02:32:31;;;;;;;89.13;44.88;;;;;;;-0.96;100.00;101115.00;4737047;30;20036;-88
2021/12/03 02:34:56;;;;;;;97.15;46.30;;;;;;;-0.88;100.00;101110.69;4737119;30;20497;-89
2021/12/03 02:37:21;;;;;;;95.35;47.65;;;;;;;-0.96;100.00;101084.56;4736925;30;20112;-89
2021/12/03 02:39:47;;;;;;;106.30;48.08;;;;;;;-0.88;100.00;101099.72;4736840;30;20036;-89
2021/12/03 02:42:12;;;;;;;112.32;48.92;;;;;;;-0.74;100.00;101110.50;4736853;30;20032;-89
2021/12/03 02:44:38;;;;;;;122.07;49.17;;;;;;;-0.72;100.00;101101.19;4736920;30;20064;-88
2021/12/03 02:47:04;;;;;;;112.97;47.45;;;;;;;-0.77;100.00;101085.19;4736827;30;20037;-88
2021/12/03 02:49:29;;;;;;;124.75;49.15;;;;;;;-0.68;100.00;101107.06;4736889;30;20037;-88
2021/12/03 02:51:55;;;;;;;125.72;48.70;;;;;;;-0.66;100.00;101103.66;4736824;30;20048;-85
2021/12/03 02:54:20;;;;;;;116.57;46.80;;;;;;;-0.66;100.00;101105.34;4736531;30;20040;-88
2021/12/03 02:56:47;;;;;;;121.50;48.80;;;;;;;-0.60;100.00;101118.78;4736669;30;20090;-88
2021/12/03 02:59:13;;;;;;;136.02;48.42;;;;;;;-0.61;100.00;101111.19;4736869;30;20032;-88
2021/12/03 03:01:38;;;;;;;125.15;47.72;;;;;;;-0.52;100.00;101113.63;4750095;30;20494;-88
2021/12/03 03:04:04;;;;;;;134.63;51.05;;;;;;;-0.84;100.00;101047.25;4736431;30;20040;-86
2021/12/03 03:06:30;;;;;;;135.55;49.40;;;;;;;-0.59;100.00;101084.97;4736490;30;20043;-87
2021/12/03 03:08:55;;;;;;;131.18;50.50;;;;;;;-0.45;100.00;101101.69;4736532;30;20094;-85
2021/12/03 03:11:22;;;;;;;148.05;52.15;;;;;;;-0.69;100.00;101067.34;4736160;30;20040;-87
2021/12/03 03:13:48;;;;;;;142.70;50.75;;;;;;;-0.43;100.00;101095.75;4736436;30;20068;-86
2021/12/03 03:16:16;;;;;;;141.07;51.15;;;;;;;-0.39;100.00;101088.94;4736413;30;20120;-89
2021/12/03 03:18:41;;;;;;;149.80;51.08;;;;;;;-0.45;100.00;101081.41;4736191;30;20115;-85
2021/12/03 03:21:07;;;;;;;145.60;50.63;;;;;;;-0.39;100.00;101097.41;4736316;30;20056;-87
2021/12/03 03:23:34;;;;;;;139.95;50.58;;;;;;;-0.37;100.00;101092.28;4720438;30;20049;-89
2021/12/03 03:26:00;;;;;;;141.38;48.50;;;;;;;-0.47;100.00;101073.81;4735860;30;20510;-88
2021/12/03 03:28:26;;;;;;;148.10;50.92;;;;;;;-0.33;100.00;101089.69;4736122;30;20494;-88
2021/12/03 03:30:54;;;;;;;133.38;49.83;;;;;;;-0.29;100.00;101087.97;4736171;30;20066;-88
2021/12/03 03:33:20;;;;;;;134.48;48.55;;;;;;;-0.34;100.00;101079.56;4735956;30;20043;-88
2021/12/03 03:35:46;;;;;;;135.98;51.70;;;;;;;-0.29;100.00;101093.03;4736062;30;20040;-88
2021/12/03 03:38:13;;;;;;;132.85;49.75;;;;;;;-0.29;100.00;101095.56;4735960;30;20037;-87
2021/12/03 03:40:40;;;;;;;122.25;48.28;;;;;;;-0.26;100.00;101097.22;4735900;30;20046;-89
2021/12/03 03:43:06;;;;;;;123.55;49.00;;;;;;;-0.39;100.00;101074.56;4735811;30;20040;-89
2021/12/03 03:45:33;;;;;;;119.63;47.47;;;;;;;-0.23;100.00;101099.69;4735965;30;20033;-87
2021/12/03 03:48:00;;;;;;;121.90;49.75;;;;;;;-0.23;100.00;101100.53;4735707;30;20070;-88
2021/12/03 03:50:26;;;;;;;118.85;47.00;;;;;;;-0.20;100.00;101097.13;4720344;30;20390;-88
2021/12/03 03:52:53;;;;;;;117.70;47.38;;;;;;;-0.22;100.00;101091.22;4736234;30;20043;-87
2021/12/03 03:55:20;;;;;;;114.38;45.70;;;;;;;-0.21;100.00;101085.28;4735679;30;20474;-89
2021/12/03 03:57:47;;;;;;;116.53;46.47;;;;;;;-0.17;100.00;101089.47;4735596;30;20497;-88
2021/12/03 04:00:16;;;;;;;103.90;44.95;;;;;;;-0.15;100.00;101086.03;4735674;30;20035;-88
2021/12/03 04:02:43;;;;;;;108.05;45.83;;;;;;;-0.27;100.00;101054.94;4748312;30;20041;-86
2021/12/03 04:05:09;;;;;;;101.60;43.20;;;;;;;-0.13;100.00;101070.78;4735642;30;20028;-88
2021/12/03 04:07:34;;;;;;;106.68;45.10;;;;;;;-0.14;100.00;101076.72;4735327;30;20498;-89
2021/12/03 04:10:00;;;;;;;110.00;42.22;;;;;;;-0.12;100.00;101082.63;4735478;30;20078;-88
2021/12/03 04:12:25;;;;;;;109.85;45.30;;;;;;;-0.11;100.00;101074.97;4735321;30;20557;-87
2021/12/03 04:14:51;;;;;;;109.50;44.25;;;;;;;-0.15;100.00;101055.59;4735468;30;20029;-89
2021/12/03 04:17:16;;;;;;;106.35;44.42;;;;;;;-0.10;100.00;101065.66;4734939;30;20037;-88
2021/12/03 04:19:43;;;;;;;114.05;43.60;;;;;;;-0.07;100.00;101069.00;4735457;30;20152;-90
2021/12/03 04:22:09;;;;;;;108.93;44.60;;;;;;;-0.11;100.00;101072.44;4735170;30;20385;-88
2021/12/03 04:24:34;;;;;;;120.38;45.13;;;;;;;-0.03;100.00;101069.78;4735236;30;20153;-88
2021/12/03 04:27:00;;;;;;;120.57;45.88;;;;;;;-0.16;100.00;101042.94;4735054;30;20068;-88
2021/12/03 04:29:25;;;;;;;117.25;46.58;;;;;;;-0.08;100.00;101046.19;4735419;30;20060;-90
2021/12/03 04:31:50;;;;;;;121.38;44.92;;;;;;;-0.08;100.00;101051.25;4735293;30;20037;-89
2021/12/03 04:34:16;;;;;;;124.53;46.47;;;;;;;-0.06;100.00;101044.47;4735064;30;20102;-89
2021/12/03 04:36:41;;;;;;;128.25;46.28;;;;;;;-0.25;100.00;101023.59;4735145;30;20040;-89
2021/12/03 04:39:07;;;;;;;124.15;47.10;;;;;;;-0.10;100.00;101046.22;4735173;30;20035;-90
2021/12/03 04:41:32;;;;;;;116.65;47.28;;;;;;;0.02;100.00;101068.03;4735228;30;20036;-89
2021/12/03 04:43:57;;;;;;;112.25;46.95;;;;;;;-0.08;100.00;101052.09;4734760;30;20040;-89
2021/12/03 04:46:23;;;;;;;118.15;45.63;;;;;;;0.01;100.00;101058.75;4734960;30;20502;-87
2021/12/03 04:48:49;;;;;;;117.50;43.83;;;;;;;-0.06;100.00;101047.84;4735002;30;20044;-89
2021/12/03 04:51:15;;;;;;;118.65;46.25;;;;;;;0.11;100.00;101072.97;4734816;30;20059;-89
2021/12/03 04:53:40;;;;;;;116.30;45.63;;;;;;;0.14;100.00;101067.00;4735138;30;20040;-89
2021/12/03 04:56:06;;;;;;;118.65;46.35;;;;;;;0.00;100.00;101034.22;4734908;30;20489;-83
2021/12/03 04:58:32;;;;;;;113.22;45.42;;;;;;;0.14;100.00;101062.75;4734663;30;20501;-83
2021/12/03 05:00:58;;;;;;;112.30;43.22;;;;;;;0.12;100.00;101059.41;4734848;30;20033;-80
2021/12/03 05:03:26;;;;;;;109.25;45.88;;;;;;;0.19;100.00;101050.78;4734872;30;20571;-89
2021/12/03 05:05:57;;;;;;;106.93;44.85;;;;;;;0.19;100.00;101047.41;4719171;30;20376;-86
2021/12/03 05:08:25;;;;;;;105.88;44.35;;;;;;;0.18;100.00;101049.13;4734839;30;20048;-87
2021/12/03 05:10:50;;;;;;;103.03;44.58;;;;;;;0.12;100.00;101033.16;4734942;30;20025;-83
2021/12/03 05:13:19;;;;;;;101.57;44.85;;;;;;;0.20;100.00;101047.41;4734677;30;20029;-88
2021/12/03 05:15:45;;;;;;;102.18;44.55;;;;;;;0.16;100.00;101037.31;4734829;30;20577;-87
2021/12/03 05:18:15;;;;;;;97.47;41.17;;;;;;;0.08;100.00;101017.13;4734448;30;20037;-88
2021/12/03 05:20:42;;;;;;;93.18;40.03;;;;;;;0.12;100.00;101023.84;4734766;30;20043;-89
2021/12/03 05:23:08;;;;;;;93.85;43.83;;;;;;;0.11;100.00;101023.88;4734686;30;20032;-89
2021/12/03 05:25:35;;;;;;;94.78;39.65;;;;;;;0.12;100.00;101031.47;4734824;30;20033;-88
2021/12/03 05:28:01;;;;;;;89.38;41.47;;;;;;;0.08;100.00;101016.28;4734747;30;20025;-89
2021/12/03 05:30:28;;;;;;;88.35;40.42;;;;;;;0.12;100.00;101031.47;4737573;30;20056;-89
2021/12/03 05:32:53;;;;;;;89.28;38.65;;;;;;;0.12;100.00;101034.00;4737955;30;20071;-91
2021/12/03 05:35:19;;;;;;;88.82;39.05;;;;;;;0.11;100.00;101032.34;4738041;30;20056;-89
2021/12/03 05:37:45;;;;;;;77.45;38.05;;;;;;;0.09;100.00;101033.19;4738267;30;20044;-90
2021/12/03 05:40:12;;;;;;;68.28;35.58;;;;;;;0.11;100.00;101037.41;4738374;30;20162;-88
2021/12/03 05:42:38;;;;;;;76.15;35.53;;;;;;;-0.04;100.00;101012.25;4737914;30;20115;-89
2021/12/03 05:45:06;;;;;;;67.38;34.25;;;;;;;0.12;100.00;101039.09;4737831;30;20029;-88
2021/12/03 05:47:31;;;;;;;67.07;33.85;;;;;;;0.13;100.00;101042.47;4737578;30;20036;-89
2021/12/03 05:49:57;;;;;;;62.60;32.15;;;;;;;0.14;100.00;101044.13;4737820;30;20028;-87
2021/12/03 05:52:22;;;;;;;62.38;30.30;;;;;;;0.03;100.00;101021.47;4737917;30;20021;-88
2021/12/03 05:54:48;;;;;;;59.03;30.60;;;;;;;0.14;100.00;101037.34;4737834;30;20033;-89
2021/12/03 05:57:13;;;;;;;53.28;28.50;;;;;;;0.04;100.00;101027.38;4737784;30;20032;-89
2021/12/03 05:59:39;;;;;;;50.13;26.48;;;;;;;0.02;100.00;101014.72;4737288;30;20024;-85
2021/12/03 06:02:04;;;;;;;50.47;26.42;;;;;;;0.14;100.00;101044.97;4721639;30;20041;-90
2021/12/03 06:04:30;;;;;;;48.20;24.55;;;;;;;0.18;100.00;101048.28;4737346;30;20044;-89
2021/12/03 06:06:55;;;;;;;51.85;24.38;;;;;;;0.05;100.00;101019.72;4737395;30;20059;-89
2021/12/03 06:09:21;;;;;;;45.28;23.27;;;;;;;0.19;100.00;101042.34;4737386;30;20456;-87
2021/12/03 06:11:46;;;;;;;47.47;22.67;;;;;;;0.13;100.00;101028.06;4737568;30;20045;-89
2021/12/03 06:14:11;;;;;;;41.65;21.45;;;;;;;0.18;100.00;101022.91;4737397;30;20063;-89
2021/12/03 06:16:37;;;;;;;38.15;20.58;;;;;;;0.19;100.00;101029.66;4737194;30;20060;-89
2021/12/03 06:19:02;;;;;;;41.67;21.45;;;;;;;0.21;100.00;101022.88;4737474;30;20033;-89
2021/12/03 06:21:27;;;;;;;42.97;20.88;;;;;;;0.26;100.00;101023.59;4737313;30;20094;-89
2021/12/03 06:23:53;;;;;;;39.10;20.75;;;;;;;0.28;100.00;101022.72;4737287;30;20040;-88
2021/12/03 06:26:18;;;;;;;39.97;19.77;;;;;;;0.15;100.00;101002.66;4737347;30;20029;-89
2021/12/03 06:28:44;;;;;;;35.53;19.05;;;;;;;0.17;100.00;101006.81;4737140;30;20036;-89
2021/12/03 06:31:09;;;;;;;38.33;19.02;;;;;;;0.30;100.00;101020.16;4736980;30;20483;-91
2021/12/03 06:33:34;;;;;;;34.00;17.67;;;;;;;0.18;100.00;101000.88;4737083;30;20119;-86
2021/12/03 06:36:00;;;;;;;34.58;17.75;;;;;;;0.32;100.00;101018.44;4721281;30;20044;-90
2021/12/03 06:38:26;;;;;;;32.58;17.05;;;;;;;0.20;100.00;101006.78;4737126;30;20063;-89
2021/12/03 06:40:52;;;;;;;29.48;15.93;;;;;;;0.33;100.00;101022.66;4736577;30;20041;-88
2021/12/03 06:43:18;;;;;;;30.17;15.55;;;;;;;0.34;100.00;101024.31;4736654;30;20047;-90
2021/12/03 06:45:44;;;;;;;29.67;14.60;;;;;;;0.33;100.00;101017.56;4736737;30;20037;-89
2021/12/03 06:48:09;;;;;;;27.30;14.63;;;;;;;0.33;100.00;101016.72;4736951;30;20174;-89
2021/12/03 06:50:35;;;;;;;26.10;13.27;;;;;;;0.33;100.00;101024.34;4736763;30;20048;-89
2021/12/03 06:53:04;;;;;;;27.33;12.40;;;;;;;0.32;100.00;101032.84;4736752;30;20040;-90
2021/12/03 06:55:47;;;;;;;25.77;12.70;;;;;;;0.33;100.00;101031.97;4736759;30;20386;-86
2021/12/03 06:58:15;;;;;;;27.05;12.52;;;;;;;0.21;100.00;101007.63;4736738;30;20451;-90
2021/12/03 07:00:41;;;;;;;24.38;11.57;;;;;;;0.36;100.00;101037.81;4736608;30;20074;-86
2021/12/03 07:03:07;;;;;;;27.27;13.45;;;;;;;0.35;99.83;101028.53;4749543;30;20460;-92
2021/12/03 07:05:32;;;;;;;23.00;11.30;;;;;;;0.19;100.00;101010.16;4736814;30;20044;-90
2021/12/03 07:07:58;;;;;;;27.10;11.68;;;;;;;0.33;99.63;101020.09;4736349;30;20052;-92
2021/12/03 07:10:23;;;;;;;28.20;12.02;;;;;;;0.32;99.09;101026.06;4736855;30;20380;-92
2021/12/03 07:12:49;;;;;;;28.83;11.43;;;;;;;0.32;98.95;101017.59;4736567;30;20033;-91
2021/12/03 07:15:14;;;;;;;27.63;10.77;;;;;;;0.31;98.56;101018.47;4736613;30;20040;-93
2021/12/03 07:17:40;;;;;;;25.00;12.35;;;;;;;0.17;98.54;100998.38;4736650;30;20032;-93
2021/12/03 07:20:07;;;;;;;26.98;11.20;;;;;;;0.26;98.54;101003.28;4736537;30;20065;-90
2021/12/03 07:22:33;;;;;;;23.85;11.02;;;;;;;0.23;98.01;101006.72;4737643;30;20119;-93
2021/12/03 07:24:58;;;;;;;23.58;10.50;;;;;;;0.26;97.90;101011.75;4737617;30;20437;-89
2021/12/03 07:27:25;;;;;;;25.20;11.18;;;;;;;0.25;97.87;100997.38;4723364;30;20029;-89
2021/12/03 07:29:50;;;;;;;25.98;11.60;;;;;;;0.31;98.52;100998.16;4736578;30;20024;-93
2021/12/03 07:32:17;;;;;;;21.33;10.50;;;;;;;0.32;97.63;101000.66;4737000;30;20032;-91
2021/12/03 07:34:43;;;;;;;26.45;10.57;;;;;;;0.14;97.55;100971.34;4737403;30;20036;-92
2021/12/03 07:37:09;;;;;;;26.35;10.60;;;;;;;0.32;97.35;101007.44;4737737;30;20483;-93
2021/12/03 07:39:35;;;;;;;29.58;11.45;;;;;;;0.34;97.44;101011.63;4735761;30;20036;-94
2021/12/03 07:42:00;;;;;;;22.13;11.15;;;;;;;0.37;97.14;101003.09;4736671;30;20095;-78
2021/12/03 07:44:25;;;;;;;27.70;10.63;;;;;;;0.39;97.11;101014.06;4736607;30;20039;-86
2021/12/03 07:46:51;;;;;;;22.58;11.13;;;;;;;0.42;96.55;101008.94;4737431;30;20059;-90
2021/12/03 07:49:16;;;;;;;21.98;10.45;;;;;;;0.43;96.24;101010.63;4740276;30;20033;-91
2021/12/03 07:51:42;;;;;;;20.48;9.88;;;;;;;0.25;96.36;100973.69;4742546;30;20032;-85
2021/12/03 07:54:07;;;;;;;21.50;10.35;;;;;;;0.47;95.87;101005.44;4739650;30;20037;-84
2021/12/03 07:56:33;;;;;;;27.92;10.57;;;;;;;0.37;96.23;100981.06;4736650;30;20493;-92
2021/12/03 07:58:58;;;;;;;21.23;10.05;;;;;;;0.53;96.07;100999.41;4736064;30;20036;-90
2021/12/03 08:01:24;;;;;;;23.13;9.52;;;;;;;0.31;96.05;100963.41;4735893;30;20037;-90
2021/12/03 08:03:50;;;;;;;23.08;9.10;;;;;;;0.47;95.54;100986.81;4735849;30;20052;-79
2021/12/03 08:06:15;;;;;;;22.08;9.55;;;;;;;0.60;95.25;101000.16;4736336;30;20486;-86
2021/12/03 08:08:41;;;;;;;23.27;10.43;;;;;;;0.51;95.75;100981.66;4735409;30;20088;-85
2021/12/03 08:11:07;;;;;;;24.83;9.32;;;;;;;0.59;95.45;100981.53;4736168;30;20091;-91
2021/12/03 08:13:34;;;;;;;21.50;9.30;;;;;;;0.67;95.51;100994.06;4736487;30;20465;-93
2021/12/03 08:15:59;;;;;;;22.90;8.27;;;;;;;0.69;95.40;101000.81;4719858;30;20028;-78
2021/12/03 08:18:25;;;;;;;26.45;9.07;;;;;;;0.64;94.88;100989.03;4735318;30;20040;-86
2021/12/03 08:20:51;;;;;;;21.48;8.75;;;;;;;0.74;94.84;101000.69;4735316;30;20042;-88
2021/12/03 08:23:17;;;;;;;21.35;8.32;;;;;;;0.77;94.98;100995.53;4748626;30;20045;-91
2021/12/03 08:25:43;;;;;;;21.05;7.85;;;;;;;0.80;94.76;100998.88;4748757;30;20044;-84
2021/12/03 08:28:09;;;;;;;23.88;8.48;;;;;;;0.84;94.77;100992.84;4735468;30;20021;-93
2021/12/03 08:30:34;;;;;;;22.55;8.55;;;;;;;0.88;94.51;100990.25;4735465;30;20040;-94
2021/12/03 08:33:01;;;;;;;24.00;7.63;;;;;;;0.84;93.92;100980.16;4735298;30;20112;-84
2021/12/03 08:35:27;;;;;;;26.35;6.97;;;;;;;0.72;94.00;100946.53;4734979;30;20036;-91
2021/12/03 08:37:52;;;;;;;20.67;7.28;;;;;;;1.04;93.65;100992.44;4735193;30;20028;-92
2021/12/03 08:40:21;;;;;;;22.85;7.10;;;;;;;1.05;93.45;100980.56;4735287;30;20115;-91
2021/12/03 08:42:48;;;;;;;22.25;7.35;;;;;;;1.10;93.59;100976.22;4735617;30;20127;-81
2021/12/03 08:45:16;;;;;;;23.13;7.65;;;;;;;1.15;93.37;100985.41;4735249;30;20060;-92
2021/12/03 08:47:44;;;;;;;20.88;7.43;;;;;;;1.21;93.38;100989.56;4735471;30;20091;-90
2021/12/03 08:50:16;;;;;;;23.45;7.45;;;;;;;1.28;93.32;100992.78;4734943;30;20040;-88
2021/12/03 08:55:25;;;;;;;27.55;7.80;;;;;;;1.17;92.65;100949.78;4735197;30;20086;-83
2021/12/03 08:57:51;;;;;;;23.10;7.28;;;;;;;1.34;92.16;100974.84;4734915;30;20032;-84
2021/12/03 09:00:21;;;;;;;16.77;6.93;;;;;;;1.20;92.18;100947.19;4735152;30;20486;-85
2021/12/03 09:02:47;;;;;;;19.85;6.50;;;;;;;1.35;91.77;100967.16;4734728;30;20032;-86
2021/12/03 09:05:13;;;;;;;25.05;6.55;;;;;;;1.37;91.66;100965.41;4734559;30;20082;-89
2021/12/03 09:07:39;;;;;;;19.45;6.22;;;;;;;1.31;91.25;100957.13;4734710;30;20107;-91
2021/12/03 09:10:10;;;;;;;22.00;6.25;;;;;;;1.30;91.45;100946.09;4734993;30;20037;-88
2021/12/03 09:12:35;;;;;;;22.25;6.85;;;;;;;1.26;91.20;100925.84;4719132;30;20047;-90
2021/12/03 09:15:05;;;;;;;17.92;6.38;;;;;;;1.63;91.17;100971.63;4734939;30;20391;-91
2021/12/03 09:20:33;;;;;;;21.58;6.15;;;;;;;1.72;89.88;100956.97;4734639;30;20468;-90
2021/12/03 09:23:03;;;;;;;17.83;6.05;;;;;;;1.72;90.80;100954.41;4734740;30;20032;-81
2021/12/03 09:25:33;;;;;;;19.10;7.88;;;;;;;1.75;90.46;100945.03;4734865;30;20109;-87
2021/12/03 09:28:02;;;;;;;19.17;6.43;;;;;;;1.63;90.89;100930.91;4734856;30;20028;-78
2021/12/03 09:30:35;;;;;;;19.95;6.47;;;;;;;1.80;90.78;100958.50;4735050;30;20029;-90
2021/12/03 09:33:01;;;;;;;17.67;7.38;;;;;;;1.56;90.84;100924.28;4734918;30;20094;-84
2021/12/03 09:35:27;;;;;;;23.92;7.10;;;;;;;1.80;90.45;100961.88;4734567;30;20474;-77
2021/12/03 09:37:53;;;;;;;19.30;7.10;;;;;;;1.83;90.95;100953.31;4734668;30;20029;-87
2021/12/03 09:40:22;;;;;;;18.10;6.15;;;;;;;1.88;90.56;100965.06;4748143;30;20053;-86
2021/12/03 09:42:47;;;;;;;23.20;7.93;;;;;;;1.95;90.75;100958.09;4734673;30;20037;-85
2021/12/03 09:45:13;;;;;;;18.30;6.72;;;;;;;1.91;90.10;100931.88;4734441;30;20387;-86
2021/12/03 09:47:39;;;;;;;19.50;6.85;;;;;;;1.84;89.85;100914.25;4734659;30;20060;-81
2021/12/03 09:50:09;;;;;;;23.02;6.95;;;;;;;1.97;90.16;100939.38;4734707;30;20037;-87
2021/12/03 09:55:18;;;;;;;19.15;6.60;;;;;;;2.01;90.33;100928.22;4734816;30;20124;-86
2021/12/03 09:58:07;;;;;;;19.95;6.25;;;;;;;1.88;90.63;100900.59;4734453;30;20094;-87
2021/12/03 10:00:46;;;;;;;25.30;8.00;;;;;;;1.99;90.21;100919.78;4734732;30;20386;-71
2021/12/03 10:17:32;;;;;;;18.35;6.38;;;;;;;2.29;91.11;100907.94;4737467;30;20051;-78
2021/12/03 10:34:11;;;;;;;20.30;6.32;;;;;;;2.22;90.94;100847.00;4683099;30;20141;-79
2021/12/03 10:45:09;;;;;;;20.15;6.35;;;;;;;2.48;90.30;100816.53;4683361;30;20052;-90
2021/12/03 10:47:16;;;;;;;19.80;6.47;;;;;;;2.66;90.48;100821.94;4676982;30;20059;-79
2021/12/03 10:49:53;;;;;;;16.23;6.40;;;;;;;2.59;89.95;100806.81;4682835;30;20463;-79
2021/12/03 11:05:28;;;;;;;15.68;5.85;;;;;;;2.58;88.45;100740.59;4715868;30;20032;-79
2021/12/03 11:19:36;;;;;;;17.75;6.47;;;;;;;3.10;87.53;100772.06;4737178;30;20040;-77
2021/12/03 11:40:49;;;;;;;20.30;7.85;;;;;;;2.90;85.44;100641.81;4735898;30;20032;-77
2021/12/03 11:47:28;;;;;;;15.15;6.78;;;;;;;3.50;85.58;100720.50;4736330;30;20140;-76
2021/12/03 13:13:06;;;;;;;10.32;4.93;;;;;;;3.67;79.95;100559.88;4734630;30;20037;-82
2021/12/03 13:29:41;;;;;;;11.57;3.78;;;;;;;3.94;79.73;100573.28;4734511;30;20044;-81
2021/12/03 13:32:16;;;;;;;9.50;3.78;;;;;;;3.78;81.64;100544.13;4734754;30;20047;-85
2021/12/03 14:37:49;;;;;;;7.75;4.22;;;;;;;3.29;88.51;100519.66;4649049;30;20123;-75
2021/12/03 14:56:36;;;;;;;8.35;4.20;;;;;;;3.28;89.85;100528.19;4648450;30;20043;-80
2021/12/03 14:59:17;;;;;;;11.10;4.50;;;;;;;3.28;89.38;100523.09;4648274;30;20047;-74
2021/12/03 15:07:12;;;;;;;10.23;4.40;;;;;;;3.22;90.66;100525.88;4696918;30;20116;-77
2021/12/03 15:09:41;;;;;;;8.90;5.03;;;;;;;3.18;91.27;100525.16;4699724;30;20053;-77
2021/12/03 15:12:48;;;;;;;10.23;5.15;;;;;;;3.16;91.95;100526.94;4699682;30;20039;-80
2021/12/03 15:15:54;;;;;;;9.50;4.97;;;;;;;3.08;92.55;100524.66;4698979;30;20053;-73
2021/12/03 15:18:36;;;;;;;;;;;;;;;3.11;92.28;100527.09;4699912;30;20407;-77
2021/12/03 15:37:05;;;;;;;10.15;5.70;;;;;;;2.69;98.03;100465.75;4665056;30;20125;-82
2021/12/03 15:39:50;;;;;;;11.75;5.72;;;;;;;2.85;98.24;100491.50;4664824;30;20452;-76
2021/12/03 15:56:36;;;;;;;10.85;7.10;;;;;;;2.55;99.94;100442.47;4664635;30;20050;-81
2021/12/03 16:04:37;;;;;;;10.07;6.88;;;;;;;2.73;100.00;100469.84;4698608;30;20072;-80
2021/12/03 16:20:26;;;;;;;9.27;7.20;;;;;;;2.73;100.00;100453.72;4667524;30;20415;-81
2021/12/03 16:47:28;;;;;;;11.23;7.72;;;;;;;2.62;100.00;100404.84;4703683;30;20049;-81
2021/12/03 16:52:41;;;;;;;10.63;7.53;;;;;;;2.70;100.00;100424.06;4717654;30;20093;-81
2021/12/03 16:55:06;;;;;;;10.57;8.02;;;;;;;2.74;100.00;100442.63;4717588;30;20033;-80
2021/12/03 16:57:34;;;;;;;10.25;7.88;;;;;;;2.76;100.00;100431.50;4717536;30;20162;-78
2021/12/03 17:00:15;;;;;;;11.23;7.93;;;;;;;2.75;100.00;100423.88;4717182;30;20029;-75